sensor_id;sensor_type;location;lat;lon;timestamp;temperature;humidity
68276;DHT22;55106;51.438;-0.098;2022-07-10T00:01:54;16.51;83.67
68276;DHT22;55106;51.438;-0.098;2022-07-10T00:04:20;16.47;83.63
68276;DHT22;55106;51.438;-0.098;2022-07-10T00:06:45;16.44;83.65
68276;DHT22;55106;51.438;-0.098;2022-07-10T00:09:15;16.37;83.80
68276;DHT22;55106;51.438;-0.098;2022-07-10T00:11:41;16.31;83.90
68276;DHT22;55106;51.438;-0.098;2022-07-10T00:14:07;16.31;84.35
68276;DHT22;55106;51.438;-0.098;2022-07-10T00:16:33;16.31;83.57
68276;DHT22;55106;51.438;-0.098;2022-07-10T00:18:58;16.32;83.57
68276;DHT22;55106;51.438;-0.098;2022-07-10T00:21:23;16.34;83.43
68276;DHT22;55106;51.438;-0.098;2022-07-10T00:23:49;16.27;83.22
68276;DHT22;55106;51.438;-0.098;2022-07-10T00:26:14;16.27;83.47
68276;DHT22;55106;51.438;-0.098;2022-07-10T00:28:40;16.23;83.46
68276;DHT22;55106;51.438;-0.098;2022-07-10T00:31:05;16.23;83.40
68276;DHT22;55106;51.438;-0.098;2022-07-10T00:33:31;16.17;83.48
68276;DHT22;55106;51.438;-0.098;2022-07-10T00:35:58;16.11;83.68
68276;DHT22;55106;51.438;-0.098;2022-07-10T00:38:24;16.06;83.76
68276;DHT22;55106;51.438;-0.098;2022-07-10T00:40:49;16.06;83.96
68276;DHT22;55106;51.438;-0.098;2022-07-10T00:43:15;16.02;83.54
68276;DHT22;55106;51.438;-0.098;2022-07-10T00:45:41;15.99;83.83
68276;DHT22;55106;51.438;-0.098;2022-07-10T00:48:06;15.96;84.08
68276;DHT22;55106;51.438;-0.098;2022-07-10T00:50:32;15.93;83.94
68276;DHT22;55106;51.438;-0.098;2022-07-10T00:52:58;15.86;84.15
68276;DHT22;55106;51.438;-0.098;2022-07-10T00:55:24;15.82;84.02
68276;DHT22;55106;51.438;-0.098;2022-07-10T00:57:50;15.78;84.23
68276;DHT22;55106;51.438;-0.098;2022-07-10T01:00:15;15.75;83.75
68276;DHT22;55106;51.438;-0.098;2022-07-10T01:02:42;15.69;84.49
68276;DHT22;55106;51.438;-0.098;2022-07-10T01:05:08;15.67;84.77
68276;DHT22;55106;51.438;-0.098;2022-07-10T01:07:34;15.61;84.60
68276;DHT22;55106;51.438;-0.098;2022-07-10T01:09:59;15.56;84.80
68276;DHT22;55106;51.438;-0.098;2022-07-10T01:12:26;15.55;84.95
68276;DHT22;55106;51.438;-0.098;2022-07-10T01:14:52;15.54;84.86
68276;DHT22;55106;51.438;-0.098;2022-07-10T01:17:18;15.49;84.73
68276;DHT22;55106;51.438;-0.098;2022-07-10T01:19:44;15.49;85.04
68276;DHT22;55106;51.438;-0.098;2022-07-10T01:22:10;15.51;85.07
68276;DHT22;55106;51.438;-0.098;2022-07-10T01:24:35;15.46;84.78
68276;DHT22;55106;51.438;-0.098;2022-07-10T01:27:01;15.44;85.03
68276;DHT22;55106;51.438;-0.098;2022-07-10T01:29:26;15.41;84.97
68276;DHT22;55106;51.438;-0.098;2022-07-10T01:31:53;15.45;84.68
68276;DHT22;55106;51.438;-0.098;2022-07-10T01:34:19;15.51;84.58
68276;DHT22;55106;51.438;-0.098;2022-07-10T01:36:44;15.51;84.41
68276;DHT22;55106;51.438;-0.098;2022-07-10T01:39:10;15.49;84.13
68276;DHT22;55106;51.438;-0.098;2022-07-10T01:41:35;15.46;84.19
68276;DHT22;55106;51.438;-0.098;2022-07-10T01:44:01;15.44;84.15
68276;DHT22;55106;51.438;-0.098;2022-07-10T01:46:26;15.42;83.71
68276;DHT22;55106;51.438;-0.098;2022-07-10T01:48:52;15.38;83.77
68276;DHT22;55106;51.438;-0.098;2022-07-10T01:51:18;15.35;83.96
68276;DHT22;55106;51.438;-0.098;2022-07-10T01:53:45;15.34;83.90
68276;DHT22;55106;51.438;-0.098;2022-07-10T01:56:12;15.27;83.79
68276;DHT22;55106;51.438;-0.098;2022-07-10T01:58:39;15.23;83.59
68276;DHT22;55106;51.438;-0.098;2022-07-10T02:01:05;15.23;83.74
68276;DHT22;55106;51.438;-0.098;2022-07-10T02:03:31;15.20;83.87
68276;DHT22;55106;51.438;-0.098;2022-07-10T02:06:16;15.14;83.84
68276;DHT22;55106;51.438;-0.098;2022-07-10T02:08:41;15.10;83.90
68276;DHT22;55106;51.438;-0.098;2022-07-10T02:11:06;15.06;84.06
68276;DHT22;55106;51.438;-0.098;2022-07-10T02:13:32;15.06;84.13
68276;DHT22;55106;51.438;-0.098;2022-07-10T02:15:58;15.00;84.45
68276;DHT22;55106;51.438;-0.098;2022-07-10T02:18:24;14.98;84.39
68276;DHT22;55106;51.438;-0.098;2022-07-10T02:20:51;14.94;84.61
68276;DHT22;55106;51.438;-0.098;2022-07-10T02:23:17;14.93;84.65
68276;DHT22;55106;51.438;-0.098;2022-07-10T02:25:42;14.90;84.86
68276;DHT22;55106;51.438;-0.098;2022-07-10T02:28:08;14.86;84.86
68276;DHT22;55106;51.438;-0.098;2022-07-10T02:30:34;14.84;85.07
68276;DHT22;55106;51.438;-0.098;2022-07-10T02:33:00;14.81;85.23
68276;DHT22;55106;51.438;-0.098;2022-07-10T02:35:25;14.79;85.42
68276;DHT22;55106;51.438;-0.098;2022-07-10T02:37:51;14.75;85.52
68276;DHT22;55106;51.438;-0.098;2022-07-10T02:40:16;14.76;85.89
68276;DHT22;55106;51.438;-0.098;2022-07-10T02:42:42;14.70;85.89
68276;DHT22;55106;51.438;-0.098;2022-07-10T02:45:08;14.67;86.10
68276;DHT22;55106;51.438;-0.098;2022-07-10T02:47:33;14.67;86.16
68276;DHT22;55106;51.438;-0.098;2022-07-10T02:49:59;14.66;86.59
68276;DHT22;55106;51.438;-0.098;2022-07-10T02:52:24;14.62;86.59
68276;DHT22;55106;51.438;-0.098;2022-07-10T02:54:51;14.60;86.78
68276;DHT22;55106;51.438;-0.098;2022-07-10T02:57:16;14.56;86.84
68276;DHT22;55106;51.438;-0.098;2022-07-10T02:59:42;14.55;86.87
68276;DHT22;55106;51.438;-0.098;2022-07-10T03:02:07;14.53;86.99
68276;DHT22;55106;51.438;-0.098;2022-07-10T03:04:33;14.50;87.29
68276;DHT22;55106;51.438;-0.098;2022-07-10T03:06:58;14.48;87.26
68276;DHT22;55106;51.438;-0.098;2022-07-10T03:09:24;14.46;87.13
68276;DHT22;55106;51.438;-0.098;2022-07-10T03:11:51;14.45;87.34
68276;DHT22;55106;51.438;-0.098;2022-07-10T03:14:16;14.43;87.58
68276;DHT22;55106;51.438;-0.098;2022-07-10T03:16:42;14.46;87.45
68276;DHT22;55106;51.438;-0.098;2022-07-10T03:19:07;14.43;87.64
68276;DHT22;55106;51.438;-0.098;2022-07-10T03:21:33;14.40;87.69
68276;DHT22;55106;51.438;-0.098;2022-07-10T03:23:58;14.39;87.74
68276;DHT22;55106;51.438;-0.098;2022-07-10T03:26:24;14.39;87.79
68276;DHT22;55106;51.438;-0.098;2022-07-10T03:28:49;14.33;87.84
68276;DHT22;55106;51.438;-0.098;2022-07-10T03:31:15;14.32;87.92
68276;DHT22;55106;51.438;-0.098;2022-07-10T03:33:40;14.31;87.55
68276;DHT22;55106;51.438;-0.098;2022-07-10T03:36:06;14.33;87.38
68276;DHT22;55106;51.438;-0.098;2022-07-10T03:38:31;14.29;87.12
68276;DHT22;55106;51.438;-0.098;2022-07-10T03:40:57;14.25;86.09
68276;DHT22;55106;51.438;-0.098;2022-07-10T03:43:22;14.19;86.09
68276;DHT22;55106;51.438;-0.098;2022-07-10T03:45:48;14.15;85.88
68276;DHT22;55106;51.438;-0.098;2022-07-10T03:48:13;14.17;85.62
68276;DHT22;55106;51.438;-0.098;2022-07-10T03:50:39;14.17;85.50
68276;DHT22;55106;51.438;-0.098;2022-07-10T03:53:04;14.18;85.17
68276;DHT22;55106;51.438;-0.098;2022-07-10T03:55:30;14.14;84.78
68276;DHT22;55106;51.438;-0.098;2022-07-10T03:57:55;14.21;84.52
68276;DHT22;55106;51.438;-0.098;2022-07-10T04:00:25;14.18;84.07
68276;DHT22;55106;51.438;-0.098;2022-07-10T04:02:56;14.12;83.69
68276;DHT22;55106;51.438;-0.098;2022-07-10T04:05:21;14.10;83.83
68276;DHT22;55106;51.438;-0.098;2022-07-10T04:07:47;14.12;83.42
68276;DHT22;55106;51.438;-0.098;2022-07-10T04:10:12;14.14;83.68
68276;DHT22;55106;51.438;-0.098;2022-07-10T04:12:38;14.15;83.33
68276;DHT22;55106;51.438;-0.098;2022-07-10T04:15:04;14.15;83.69
68276;DHT22;55106;51.438;-0.098;2022-07-10T04:17:30;14.14;83.56
68276;DHT22;55106;51.438;-0.098;2022-07-10T04:19:58;14.12;83.39
68276;DHT22;55106;51.438;-0.098;2022-07-10T04:22:23;14.17;83.14
68276;DHT22;55106;51.438;-0.098;2022-07-10T04:24:50;14.18;83.54
68276;DHT22;55106;51.438;-0.098;2022-07-10T04:27:16;14.17;83.79
68276;DHT22;55106;51.438;-0.098;2022-07-10T04:29:42;14.14;84.07
68276;DHT22;55106;51.438;-0.098;2022-07-10T04:32:08;14.19;84.20
68276;DHT22;55106;51.438;-0.098;2022-07-10T04:34:33;14.25;84.42
68276;DHT22;55106;51.438;-0.098;2022-07-10T04:36:59;14.31;83.60
68276;DHT22;55106;51.438;-0.098;2022-07-10T04:39:25;14.35;83.63
68276;DHT22;55106;51.438;-0.098;2022-07-10T04:41:50;14.42;83.40
68276;DHT22;55106;51.438;-0.098;2022-07-10T04:44:16;14.45;83.23
68276;DHT22;55106;51.438;-0.098;2022-07-10T04:46:41;14.53;82.46
68276;DHT22;55106;51.438;-0.098;2022-07-10T04:49:06;14.62;83.15
68276;DHT22;55106;51.438;-0.098;2022-07-10T04:51:32;14.72;82.94
68276;DHT22;55106;51.438;-0.098;2022-07-10T04:53:57;14.83;81.48
68276;DHT22;55106;51.438;-0.098;2022-07-10T04:56:23;14.93;81.05
68276;DHT22;55106;51.438;-0.098;2022-07-10T04:58:48;15.04;80.98
68276;DHT22;55106;51.438;-0.098;2022-07-10T05:01:14;15.14;80.28
68276;DHT22;55106;51.438;-0.098;2022-07-10T05:03:39;15.27;79.40
68276;DHT22;55106;51.438;-0.098;2022-07-10T05:06:05;15.38;79.25
68276;DHT22;55106;51.438;-0.098;2022-07-10T05:08:30;15.49;78.59
68276;DHT22;55106;51.438;-0.098;2022-07-10T05:10:55;15.59;78.61
68276;DHT22;55106;51.438;-0.098;2022-07-10T05:13:21;15.67;78.34
68276;DHT22;55106;51.438;-0.098;2022-07-10T05:15:46;15.79;78.11
68276;DHT22;55106;51.438;-0.098;2022-07-10T05:18:12;15.87;78.34
68276;DHT22;55106;51.438;-0.098;2022-07-10T05:20:37;16.00;77.75
68276;DHT22;55106;51.438;-0.098;2022-07-10T05:23:07;16.13;77.02
68276;DHT22;55106;51.438;-0.098;2022-07-10T05:25:32;16.25;76.89
68276;DHT22;55106;51.438;-0.098;2022-07-10T05:27:58;16.35;76.45
68276;DHT22;55106;51.438;-0.098;2022-07-10T05:30:23;16.50;76.01
68276;DHT22;55106;51.438;-0.098;2022-07-10T05:32:49;16.61;75.50
68276;DHT22;55106;51.438;-0.098;2022-07-10T05:35:14;16.72;74.90
68276;DHT22;55106;51.438;-0.098;2022-07-10T05:37:40;16.83;74.45
68276;DHT22;55106;51.438;-0.098;2022-07-10T05:40:06;16.93;74.16
68276;DHT22;55106;51.438;-0.098;2022-07-10T05:42:32;17.03;73.11
68276;DHT22;55106;51.438;-0.098;2022-07-10T05:44:58;17.16;73.39
68276;DHT22;55106;51.438;-0.098;2022-07-10T05:47:23;17.31;72.82
68276;DHT22;55106;51.438;-0.098;2022-07-10T05:49:49;17.44;72.36
68276;DHT22;55106;51.438;-0.098;2022-07-10T05:52:14;17.57;71.31
68276;DHT22;55106;51.438;-0.098;2022-07-10T05:54:40;17.68;71.32
68276;DHT22;55106;51.438;-0.098;2022-07-10T05:57:05;17.71;70.34
68276;DHT22;55106;51.438;-0.098;2022-07-10T05:59:34;17.84;70.74
68276;DHT22;55106;51.438;-0.098;2022-07-10T06:02:03;17.94;70.00
68276;DHT22;55106;51.438;-0.098;2022-07-10T06:04:28;18.06;70.14
68276;DHT22;55106;51.438;-0.098;2022-07-10T06:06:54;18.21;70.20
68276;DHT22;55106;51.438;-0.098;2022-07-10T06:09:19;18.34;69.18
68276;DHT22;55106;51.438;-0.098;2022-07-10T06:11:45;18.50;69.16
68276;DHT22;55106;51.438;-0.098;2022-07-10T06:14:13;18.64;68.39
68276;DHT22;55106;51.438;-0.098;2022-07-10T06:16:38;18.77;67.42
68276;DHT22;55106;51.438;-0.098;2022-07-10T06:19:04;18.85;67.00
68276;DHT22;55106;51.438;-0.098;2022-07-10T06:21:29;18.98;67.24
68276;DHT22;55106;51.438;-0.098;2022-07-10T06:23:55;19.19;66.75
68276;DHT22;55106;51.438;-0.098;2022-07-10T06:26:20;19.36;66.51
68276;DHT22;55106;51.438;-0.098;2022-07-10T06:28:46;19.52;65.55
68276;DHT22;55106;51.438;-0.098;2022-07-10T06:31:11;19.84;65.35
68276;DHT22;55106;51.438;-0.098;2022-07-10T06:33:37;20.39;63.15
68276;DHT22;55106;51.438;-0.098;2022-07-10T06:36:03;20.99;62.57
68276;DHT22;55106;51.438;-0.098;2022-07-10T06:38:28;21.63;60.77
68276;DHT22;55106;51.438;-0.098;2022-07-10T06:40:54;22.24;58.16
68276;DHT22;55106;51.438;-0.098;2022-07-10T06:43:19;23.15;55.80
68276;DHT22;55106;51.438;-0.098;2022-07-10T06:45:45;23.37;54.10
68276;DHT22;55106;51.438;-0.098;2022-07-10T06:48:11;24.36;53.15
68276;DHT22;55106;51.438;-0.098;2022-07-10T06:50:37;24.81;50.59
68276;DHT22;55106;51.438;-0.098;2022-07-10T06:53:03;25.27;50.12
68276;DHT22;55106;51.438;-0.098;2022-07-10T06:55:29;25.39;49.07
68276;DHT22;55106;51.438;-0.098;2022-07-10T06:57:55;25.96;48.00
68276;DHT22;55106;51.438;-0.098;2022-07-10T07:00:21;25.82;49.08
68276;DHT22;55106;51.438;-0.098;2022-07-10T07:02:46;26.62;47.17
68276;DHT22;55106;51.438;-0.098;2022-07-10T07:05:12;27.39;46.36
68276;DHT22;55106;51.438;-0.098;2022-07-10T07:07:38;27.53;45.13
68276;DHT22;55106;51.438;-0.098;2022-07-10T07:10:05;27.11;45.21
68276;DHT22;55106;51.438;-0.098;2022-07-10T07:12:31;27.43;45.40
68276;DHT22;55106;51.438;-0.098;2022-07-10T07:14:56;27.87;44.81
68276;DHT22;55106;51.438;-0.098;2022-07-10T07:17:22;28.52;43.42
68276;DHT22;55106;51.438;-0.098;2022-07-10T07:19:49;28.40;43.65
68276;DHT22;55106;51.438;-0.098;2022-07-10T07:22:33;28.19;43.92
68276;DHT22;55106;51.438;-0.098;2022-07-10T07:25:17;28.74;43.20
68276;DHT22;55106;51.438;-0.098;2022-07-10T07:27:43;29.10;41.99
68276;DHT22;55106;51.438;-0.098;2022-07-10T07:30:13;28.47;43.77
68276;DHT22;55106;51.438;-0.098;2022-07-10T07:32:44;27.98;43.89
68276;DHT22;55106;51.438;-0.098;2022-07-10T07:35:12;28.53;43.69
68276;DHT22;55106;51.438;-0.098;2022-07-10T07:37:46;28.91;42.92
68276;DHT22;55106;51.438;-0.098;2022-07-10T07:40:13;28.88;42.77
68276;DHT22;55106;51.438;-0.098;2022-07-10T07:42:39;29.35;42.72
68276;DHT22;55106;51.438;-0.098;2022-07-10T07:45:07;30.21;40.48
68276;DHT22;55106;51.438;-0.098;2022-07-10T07:47:56;30.28;40.33
68276;DHT22;55106;51.438;-0.098;2022-07-10T07:50:24;30.66;39.41
68276;DHT22;55106;51.438;-0.098;2022-07-10T07:52:51;31.33;38.69
68276;DHT22;55106;51.438;-0.098;2022-07-10T07:55:18;31.68;38.16
68276;DHT22;55106;51.438;-0.098;2022-07-10T07:57:44;32.33;37.43
68276;DHT22;55106;51.438;-0.098;2022-07-10T08:00:11;32.26;37.27
68276;DHT22;55106;51.438;-0.098;2022-07-10T08:02:36;32.47;37.23
68276;DHT22;55106;51.438;-0.098;2022-07-10T08:05:03;32.20;37.21
68276;DHT22;55106;51.438;-0.098;2022-07-10T08:07:40;31.33;39.06
68276;DHT22;55106;51.438;-0.098;2022-07-10T08:10:09;31.31;38.51
68276;DHT22;55106;51.438;-0.098;2022-07-10T08:12:34;31.75;38.14
68276;DHT22;55106;51.438;-0.098;2022-07-10T08:15:00;31.51;38.49
68276;DHT22;55106;51.438;-0.098;2022-07-10T08:17:26;30.84;39.41
68276;DHT22;55106;51.438;-0.098;2022-07-10T08:19:52;30.92;39.96
68276;DHT22;55106;51.438;-0.098;2022-07-10T08:22:18;31.45;37.53
68276;DHT22;55106;51.438;-0.098;2022-07-10T08:24:43;32.05;37.81
68276;DHT22;55106;51.438;-0.098;2022-07-10T08:27:09;32.47;37.71
68276;DHT22;55106;51.438;-0.098;2022-07-10T08:29:34;31.55;38.32
68276;DHT22;55106;51.438;-0.098;2022-07-10T08:32:00;30.61;39.43
68276;DHT22;55106;51.438;-0.098;2022-07-10T08:34:26;31.95;37.55
68276;DHT22;55106;51.438;-0.098;2022-07-10T08:36:53;32.61;37.32
68276;DHT22;55106;51.438;-0.098;2022-07-10T08:39:18;32.57;36.71
68276;DHT22;55106;51.438;-0.098;2022-07-10T08:41:46;32.60;37.13
68276;DHT22;55106;51.438;-0.098;2022-07-10T08:44:15;31.62;38.50
68276;DHT22;55106;51.438;-0.098;2022-07-10T08:46:41;32.95;36.48
68276;DHT22;55106;51.438;-0.098;2022-07-10T08:49:09;33.04;36.39
68276;DHT22;55106;51.438;-0.098;2022-07-10T08:51:54;34.08;34.76
68276;DHT22;55106;51.438;-0.098;2022-07-10T08:54:21;34.18;34.68
68276;DHT22;55106;51.438;-0.098;2022-07-10T08:56:47;34.11;34.52
68276;DHT22;55106;51.438;-0.098;2022-07-10T08:59:14;34.27;34.45
68276;DHT22;55106;51.438;-0.098;2022-07-10T09:01:39;34.44;33.86
68276;DHT22;55106;51.438;-0.098;2022-07-10T09:04:05;34.10;35.06
68276;DHT22;55106;51.438;-0.098;2022-07-10T09:06:30;34.41;34.79
68276;DHT22;55106;51.438;-0.098;2022-07-10T09:09:04;35.44;33.29
68276;DHT22;55106;51.438;-0.098;2022-07-10T09:11:30;35.43;32.65
68276;DHT22;55106;51.438;-0.098;2022-07-10T09:14:01;35.43;33.72
68276;DHT22;55106;51.438;-0.098;2022-07-10T09:16:33;34.86;33.84
68276;DHT22;55106;51.438;-0.098;2022-07-10T09:19:23;33.81;34.33
68276;DHT22;55106;51.438;-0.098;2022-07-10T09:21:54;34.44;34.96
68276;DHT22;55106;51.438;-0.098;2022-07-10T09:24:21;34.73;34.31
68276;DHT22;55106;51.438;-0.098;2022-07-10T09:27:07;34.49;34.48
68276;DHT22;55106;51.438;-0.098;2022-07-10T09:29:45;34.29;33.54
68276;DHT22;55106;51.438;-0.098;2022-07-10T09:32:11;35.07;34.25
68276;DHT22;55106;51.438;-0.098;2022-07-10T09:37:29;35.17;34.51
68276;DHT22;55106;51.438;-0.098;2022-07-10T09:40:02;34.59;33.79
68276;DHT22;55106;51.438;-0.098;2022-07-10T09:42:42;34.59;34.42
68276;DHT22;55106;51.438;-0.098;2022-07-10T09:47:58;32.68;36.14
68276;DHT22;55106;51.438;-0.098;2022-07-10T09:50:34;31.17;38.58
68276;DHT22;55106;51.438;-0.098;2022-07-10T09:53:00;31.89;39.17
68276;DHT22;55106;51.438;-0.098;2022-07-10T09:55:30;33.53;36.49
68276;DHT22;55106;51.438;-0.098;2022-07-10T09:57:58;34.78;35.09
68276;DHT22;55106;51.438;-0.098;2022-07-10T10:00:27;35.67;33.55
68276;DHT22;55106;51.438;-0.098;2022-07-10T10:03:06;33.41;35.47
68276;DHT22;55106;51.438;-0.098;2022-07-10T10:05:42;34.42;35.94
68276;DHT22;55106;51.438;-0.098;2022-07-10T10:08:12;35.38;33.29
68276;DHT22;55106;51.438;-0.098;2022-07-10T10:10:45;34.71;34.60
68276;DHT22;55106;51.438;-0.098;2022-07-10T10:13:12;35.41;32.35
68276;DHT22;55106;51.438;-0.098;2022-07-10T10:15:39;35.64;32.70
68276;DHT22;55106;51.438;-0.098;2022-07-10T10:18:07;35.04;34.09
68276;DHT22;55106;51.438;-0.098;2022-07-10T10:20:33;35.03;33.66
68276;DHT22;55106;51.438;-0.098;2022-07-10T10:23:16;36.01;33.07
68276;DHT22;55106;51.438;-0.098;2022-07-10T10:25:53;34.63;33.32
68276;DHT22;55106;51.438;-0.098;2022-07-10T10:28:22;34.90;33.33
68276;DHT22;55106;51.438;-0.098;2022-07-10T10:30:50;33.83;34.74
68276;DHT22;55106;51.438;-0.098;2022-07-10T10:35:57;33.33;37.08
68276;DHT22;55106;51.438;-0.098;2022-07-10T10:38:22;34.03;34.46
68276;DHT22;55106;51.438;-0.098;2022-07-10T10:40:48;32.92;36.81
68276;DHT22;55106;51.438;-0.098;2022-07-10T10:43:21;33.98;35.63
68276;DHT22;55106;51.438;-0.098;2022-07-10T10:45:48;35.02;34.47
68276;DHT22;55106;51.438;-0.098;2022-07-10T10:48:15;35.84;33.88
68276;DHT22;55106;51.438;-0.098;2022-07-10T10:50:51;35.09;32.84
68276;DHT22;55106;51.438;-0.098;2022-07-10T10:53:27;35.96;33.54
68276;DHT22;55106;51.438;-0.098;2022-07-10T10:58:25;34.32;34.88
68276;DHT22;55106;51.438;-0.098;2022-07-10T11:00:51;34.62;35.40
68276;DHT22;55106;51.438;-0.098;2022-07-10T11:03:22;34.47;35.29
68276;DHT22;55106;51.438;-0.098;2022-07-10T11:05:50;34.53;34.35
68276;DHT22;55106;51.438;-0.098;2022-07-10T11:08:36;34.82;33.92
68276;DHT22;55106;51.438;-0.098;2022-07-10T11:14:03;33.28;35.85
68276;DHT22;55106;51.438;-0.098;2022-07-10T11:16:31;33.92;35.72
68276;DHT22;55106;51.438;-0.098;2022-07-10T11:18:57;34.04;34.76
68276;DHT22;55106;51.438;-0.098;2022-07-10T11:21:25;34.03;35.00
68276;DHT22;55106;51.438;-0.098;2022-07-10T11:24:10;33.86;33.91
68276;DHT22;55106;51.438;-0.098;2022-07-10T11:29:08;32.54;35.66
68276;DHT22;55106;51.438;-0.098;2022-07-10T11:31:33;33.08;36.49
68276;DHT22;55106;51.438;-0.098;2022-07-10T11:34:10;33.29;35.77
68276;DHT22;55106;51.438;-0.098;2022-07-10T11:36:38;32.57;36.62
68276;DHT22;55106;51.438;-0.098;2022-07-10T11:39:05;32.81;37.28
68276;DHT22;55106;51.438;-0.098;2022-07-10T11:41:32;31.67;36.48
68276;DHT22;55106;51.438;-0.098;2022-07-10T11:43:59;31.68;38.45
68276;DHT22;55106;51.438;-0.098;2022-07-10T11:46:27;30.72;38.72
68276;DHT22;55106;51.438;-0.098;2022-07-10T11:48:53;31.65;37.04
68276;DHT22;55106;51.438;-0.098;2022-07-10T11:51:25;32.25;35.93
68276;DHT22;55106;51.438;-0.098;2022-07-10T11:53:58;30.76;38.13
68276;DHT22;55106;51.438;-0.098;2022-07-10T11:56:48;31.62;36.77
68276;DHT22;55106;51.438;-0.098;2022-07-10T11:59:15;32.10;34.72
68276;DHT22;55106;51.438;-0.098;2022-07-10T12:01:45;32.80;34.49
68276;DHT22;55106;51.438;-0.098;2022-07-10T12:04:12;32.71;34.48
68276;DHT22;55106;51.438;-0.098;2022-07-10T12:06:41;32.40;34.90
68276;DHT22;55106;51.438;-0.098;2022-07-10T12:09:09;32.27;34.46
68276;DHT22;55106;51.438;-0.098;2022-07-10T12:11:35;32.15;35.39
68276;DHT22;55106;51.438;-0.098;2022-07-10T12:14:16;33.35;34.72
68276;DHT22;55106;51.438;-0.098;2022-07-10T12:16:49;34.01;33.31
68276;DHT22;55106;51.438;-0.098;2022-07-10T12:19:27;33.90;34.43
68276;DHT22;55106;51.438;-0.098;2022-07-10T12:21:56;34.53;32.61
68276;DHT22;55106;51.438;-0.098;2022-07-10T12:24:22;35.00;32.33
68276;DHT22;55106;51.438;-0.098;2022-07-10T12:26:49;34.76;32.98
68276;DHT22;55106;51.438;-0.098;2022-07-10T12:31:43;33.80;32.09
68276;DHT22;55106;51.438;-0.098;2022-07-10T12:34:10;33.39;33.41
68276;DHT22;55106;51.438;-0.098;2022-07-10T12:36:44;34.00;32.46
68276;DHT22;55106;51.438;-0.098;2022-07-10T12:39:10;33.90;31.76
68276;DHT22;55106;51.438;-0.098;2022-07-10T12:42:00;33.04;34.25
68276;DHT22;55106;51.438;-0.098;2022-07-10T12:44:45;32.56;36.59
68276;DHT22;55106;51.438;-0.098;2022-07-10T12:47:19;31.41;36.54
68276;DHT22;55106;51.438;-0.098;2022-07-10T12:50:06;31.26;35.98
68276;DHT22;55106;51.438;-0.098;2022-07-10T12:52:36;31.35;37.04
68276;DHT22;55106;51.438;-0.098;2022-07-10T12:55:11;31.33;36.59
68276;DHT22;55106;51.438;-0.098;2022-07-10T12:57:55;31.51;35.78
68276;DHT22;55106;51.438;-0.098;2022-07-10T13:00:32;31.17;37.04
68276;DHT22;55106;51.438;-0.098;2022-07-10T13:03:03;31.06;35.50
68276;DHT22;55106;51.438;-0.098;2022-07-10T13:05:55;30.55;35.12
68276;DHT22;55106;51.438;-0.098;2022-07-10T13:08:22;30.00;37.71
68276;DHT22;55106;51.438;-0.098;2022-07-10T13:10:54;30.01;37.57
68276;DHT22;55106;51.438;-0.098;2022-07-10T13:13:20;29.94;39.24
68276;DHT22;55106;51.438;-0.098;2022-07-10T13:15:46;30.03;38.51
68276;DHT22;55106;51.438;-0.098;2022-07-10T13:18:19;30.01;38.89
68276;DHT22;55106;51.438;-0.098;2022-07-10T13:20:47;29.66;38.63
68276;DHT22;55106;51.438;-0.098;2022-07-10T13:23:13;29.93;39.63
68276;DHT22;55106;51.438;-0.098;2022-07-10T13:25:39;29.80;38.70
68276;DHT22;55106;51.438;-0.098;2022-07-10T13:28:06;29.74;37.76
68276;DHT22;55106;51.438;-0.098;2022-07-10T13:30:35;29.76;37.62
68276;DHT22;55106;51.438;-0.098;2022-07-10T13:33:00;29.81;39.35
68276;DHT22;55106;51.438;-0.098;2022-07-10T13:35:30;29.97;39.53
68276;DHT22;55106;51.438;-0.098;2022-07-10T13:37:57;29.86;38.85
68276;DHT22;55106;51.438;-0.098;2022-07-10T13:40:25;29.76;38.66
68276;DHT22;55106;51.438;-0.098;2022-07-10T13:42:51;29.46;38.35
68276;DHT22;55106;51.438;-0.098;2022-07-10T13:45:17;29.23;39.18
68276;DHT22;55106;51.438;-0.098;2022-07-10T13:47:43;29.05;39.24
68276;DHT22;55106;51.438;-0.098;2022-07-10T13:50:08;28.84;39.54
68276;DHT22;55106;51.438;-0.098;2022-07-10T13:52:34;28.73;39.37
68276;DHT22;55106;51.438;-0.098;2022-07-10T13:54:59;28.95;40.35
68276;DHT22;55106;51.438;-0.098;2022-07-10T13:57:24;28.92;39.51
68276;DHT22;55106;51.438;-0.098;2022-07-10T13:59:54;28.74;39.65
68276;DHT22;55106;51.438;-0.098;2022-07-10T14:02:25;28.67;40.88
68276;DHT22;55106;51.438;-0.098;2022-07-10T14:04:51;28.60;40.63
68276;DHT22;55106;51.438;-0.098;2022-07-10T14:07:18;28.63;40.88
68276;DHT22;55106;51.438;-0.098;2022-07-10T14:09:44;28.75;40.38
68276;DHT22;55106;51.438;-0.098;2022-07-10T14:12:10;28.92;40.02
68276;DHT22;55106;51.438;-0.098;2022-07-10T14:14:36;29.10;40.57
68276;DHT22;55106;51.438;-0.098;2022-07-10T14:17:01;29.16;40.38
68276;DHT22;55106;51.438;-0.098;2022-07-10T14:19:26;29.33;40.11
68276;DHT22;55106;51.438;-0.098;2022-07-10T14:21:52;29.31;38.25
68276;DHT22;55106;51.438;-0.098;2022-07-10T14:24:17;29.36;40.04
68276;DHT22;55106;51.438;-0.098;2022-07-10T14:26:43;29.35;39.59
68276;DHT22;55106;51.438;-0.098;2022-07-10T14:29:08;29.08;37.95
68276;DHT22;55106;51.438;-0.098;2022-07-10T14:31:34;28.81;38.52
68276;DHT22;55106;51.438;-0.098;2022-07-10T14:34:00;28.29;39.34
68276;DHT22;55106;51.438;-0.098;2022-07-10T14:36:26;28.15;40.75
68276;DHT22;55106;51.438;-0.098;2022-07-10T14:38:55;27.99;40.77
68276;DHT22;55106;51.438;-0.098;2022-07-10T14:41:22;28.08;40.35
68276;DHT22;55106;51.438;-0.098;2022-07-10T14:43:48;28.23;40.99
68276;DHT22;55106;51.438;-0.098;2022-07-10T14:46:14;28.44;41.49
68276;DHT22;55106;51.438;-0.098;2022-07-10T14:48:40;28.65;39.52
68276;DHT22;55106;51.438;-0.098;2022-07-10T14:51:06;28.88;39.38
68276;DHT22;55106;51.438;-0.098;2022-07-10T14:53:33;29.22;40.01
68276;DHT22;55106;51.438;-0.098;2022-07-10T14:56:04;29.50;40.25
68276;DHT22;55106;51.438;-0.098;2022-07-10T14:58:31;29.39;38.82
68276;DHT22;55106;51.438;-0.098;2022-07-10T15:00:57;29.22;38.77
68276;DHT22;55106;51.438;-0.098;2022-07-10T15:03:23;29.14;38.51
68276;DHT22;55106;51.438;-0.098;2022-07-10T15:05:49;29.18;40.03
68276;DHT22;55106;51.438;-0.098;2022-07-10T15:08:25;28.97;39.12
68276;DHT22;55106;51.438;-0.098;2022-07-10T15:10:51;29.02;40.34
68276;DHT22;55106;51.438;-0.098;2022-07-10T15:13:16;28.90;39.62
68276;DHT22;55106;51.438;-0.098;2022-07-10T15:15:42;28.75;40.44
68276;DHT22;55106;51.438;-0.098;2022-07-10T15:18:10;28.63;38.92
68276;DHT22;55106;51.438;-0.098;2022-07-10T15:20:37;28.44;39.64
68276;DHT22;55106;51.438;-0.098;2022-07-10T15:23:28;28.29;39.90
68276;DHT22;55106;51.438;-0.098;2022-07-10T15:25:54;28.17;40.22
68276;DHT22;55106;51.438;-0.098;2022-07-10T15:28:19;28.10;39.24
68276;DHT22;55106;51.438;-0.098;2022-07-10T15:30:45;28.01;38.76
68276;DHT22;55106;51.438;-0.098;2022-07-10T15:33:11;28.04;39.54
68276;DHT22;55106;51.438;-0.098;2022-07-10T15:35:37;28.10;38.76
68276;DHT22;55106;51.438;-0.098;2022-07-10T15:38:02;28.13;38.54